createdAt,value
2023-05-05T00:01:43.680Z,68.77
2023-05-05T00:04:11.894Z,69.13
2023-05-05T00:06:40.072Z,68.99
2023-05-05T00:09:08.356Z,68.91
2023-05-05T00:11:36.704Z,69.12
2023-05-05T00:14:04.955Z,69.16
2023-05-05T00:16:34.659Z,69.25
2023-05-05T00:19:02.882Z,69.33
2023-05-05T00:21:31.073Z,69.30
2023-05-05T00:23:59.368Z,69.38
2023-05-05T00:26:27.577Z,69.58
2023-05-05T00:28:56.957Z,69.52
2023-05-05T00:31:25.406Z,69.54
2023-05-05T00:33:55.729Z,69.62
2023-05-05T00:36:23.948Z,69.65
2023-05-05T00:38:52.230Z,69.74
2023-05-05T00:41:20.450Z,69.58
2023-05-05T00:43:48.754Z,69.72
2023-05-05T00:46:24.784Z,69.81
2023-05-05T00:48:55.906Z,69.78
2023-05-05T00:51:25.660Z,69.83
2023-05-05T00:53:54.144Z,69.91
2023-05-05T00:56:23.275Z,69.69
2023-05-05T00:58:51.645Z,69.91
2023-05-05T01:01:20.269Z,69.94
2023-05-05T01:03:48.555Z,69.96
2023-05-05T01:06:41.276Z,70.03
2023-05-05T01:09:20.546Z,69.98
2023-05-05T01:11:57.718Z,70.05
2023-05-05T01:14:33.176Z,70.09
2023-05-05T01:17:08.997Z,70.38
2023-05-05T01:20:10.284Z,70.14
2023-05-05T01:22:45.007Z,69.95
2023-05-05T01:25:36.552Z,70.10
2023-05-05T01:28:20.428Z,70.00
2023-05-05T01:31:10.063Z,70.13
2023-05-05T01:33:47.146Z,70.18
2023-05-05T01:36:22.919Z,69.90
2023-05-05T01:38:55.988Z,70.14
2023-05-05T01:41:29.460Z,70.29
2023-05-05T01:44:00.664Z,70.25
2023-05-05T01:46:29.501Z,70.15
2023-05-05T01:49:00.252Z,70.22
2023-05-05T01:51:29.820Z,70.16
2023-05-05T01:54:00.838Z,70.09
2023-05-05T01:56:32.677Z,69.86
2023-05-05T01:59:06.660Z,70.07
2023-05-05T02:01:38.801Z,69.90
2023-05-05T02:04:10.408Z,69.89
2023-05-05T02:06:41.275Z,70.00
2023-05-05T02:09:13.064Z,69.95
2023-05-05T02:11:42.186Z,69.55
2023-05-05T02:14:11.871Z,69.50
2023-05-05T02:16:42.410Z,69.76
2023-05-05T02:19:13.980Z,69.89
2023-05-05T02:21:43.798Z,69.95
2023-05-05T02:24:12.127Z,70.13
2023-05-05T02:26:42.893Z,70.04
2023-05-05T02:29:17.642Z,70.03
2023-05-05T02:31:48.611Z,69.91
2023-05-05T02:34:28.473Z,70.16
2023-05-05T02:36:59.770Z,70.11
2023-05-05T02:39:34.061Z,70.10
2023-05-05T02:42:11.812Z,70.10
2023-05-05T02:44:43.265Z,70.10
2023-05-05T02:47:13.096Z,70.16
2023-05-05T02:49:44.023Z,70.15
2023-05-05T02:52:12.374Z,70.10
2023-05-05T02:54:42.645Z,70.07
2023-05-05T02:57:21.116Z,70.19
2023-05-05T03:00:06.912Z,70.26
2023-05-05T03:02:47.911Z,70.07
2023-05-05T03:05:24.151Z,70.15
2023-05-05T03:07:56.992Z,70.25
2023-05-05T03:10:31.055Z,70.29
2023-05-05T03:13:04.531Z,70.16
2023-05-05T03:15:45.865Z,70.13
2023-05-05T03:18:17.712Z,70.13
2023-05-05T03:20:52.726Z,70.13
2023-05-05T03:23:22.994Z,70.16
2023-05-05T03:25:56.683Z,70.11
2023-05-05T03:28:35.451Z,69.78
2023-05-05T03:31:10.326Z,70.05
2023-05-05T03:33:40.007Z,69.74
2023-05-05T03:36:09.890Z,69.67
2023-05-05T03:38:38.258Z,69.63
2023-05-05T03:41:06.935Z,69.74
2023-05-05T03:43:35.594Z,69.94
2023-05-05T03:46:04.048Z,69.72
2023-05-05T03:48:34.056Z,69.96
2023-05-05T03:51:02.316Z,69.98
2023-05-05T03:53:35.172Z,69.97
2023-05-05T03:56:07.209Z,70.02
2023-05-05T03:58:35.649Z,70.13
2023-05-05T04:01:03.913Z,70.08
2023-05-05T04:03:32.725Z,70.21
2023-05-05T04:06:01.749Z,70.11
2023-05-05T04:08:31.883Z,70.10
2023-05-05T04:11:03.221Z,70.20
2023-05-05T04:13:33.372Z,70.03
2023-05-05T04:16:01.831Z,70.15
2023-05-05T04:18:31.254Z,70.22
2023-05-05T04:21:00.221Z,70.08
2023-05-05T04:23:28.917Z,70.07
2023-05-05T04:25:57.567Z,69.91
2023-05-05T04:28:28.468Z,70.02
2023-05-05T04:30:56.794Z,69.98
2023-05-05T04:33:26.156Z,69.77
2023-05-05T04:35:54.468Z,69.74
2023-05-05T04:38:23.048Z,69.62
2023-05-05T04:40:51.733Z,69.41
2023-05-05T04:43:20.193Z,69.20
2023-05-05T04:45:56.647Z,69.07
2023-05-05T04:48:29.047Z,68.91
2023-05-05T04:50:57.376Z,68.92
2023-05-05T04:53:25.613Z,68.61
2023-05-05T04:55:54.371Z,68.76
2023-05-05T04:58:22.558Z,68.73
2023-05-05T05:00:50.861Z,68.71
2023-05-05T05:03:21.951Z,68.83
2023-05-05T05:05:50.391Z,68.76
2023-05-05T05:08:18.782Z,68.84
2023-05-05T05:10:47.152Z,68.98
2023-05-05T05:13:15.497Z,68.97
2023-05-05T05:15:44.013Z,69.00
2023-05-05T05:18:12.422Z,69.08
2023-05-05T05:20:42.240Z,68.94
2023-05-05T05:23:10.496Z,68.92
2023-05-05T05:25:43.805Z,68.84
2023-05-05T05:28:13.478Z,68.77
2023-05-05T05:30:50.030Z,68.67
2023-05-05T05:33:18.897Z,68.46
2023-05-05T05:35:49.253Z,68.42
2023-05-05T05:38:20.929Z,68.30
2023-05-05T05:40:51.686Z,68.14
2023-05-05T05:43:19.939Z,68.13
2023-05-05T05:45:48.301Z,68.07
2023-05-05T05:48:17.664Z,67.87
2023-05-05T05:50:45.900Z,68.04
2023-05-05T05:53:15.466Z,67.82
2023-05-05T05:55:46.728Z,68.00
2023-05-05T05:58:16.558Z,67.68
2023-05-05T06:00:44.868Z,67.49
2023-05-05T06:03:13.457Z,67.73
2023-05-05T06:05:42.752Z,67.84
2023-05-05T06:08:11.712Z,67.52
2023-05-05T06:10:48.254Z,67.50
2023-05-05T06:13:19.793Z,67.84
2023-05-05T06:15:51.101Z,67.63
2023-05-05T06:18:19.906Z,68.03
2023-05-05T06:20:50.556Z,67.43
2023-05-05T06:23:19.926Z,67.20
2023-05-05T06:25:55.699Z,66.90
2023-05-05T06:28:23.917Z,66.96
2023-05-05T06:30:52.778Z,67.27
2023-05-05T06:33:21.021Z,67.16
2023-05-05T06:35:49.584Z,66.50
2023-05-05T06:38:17.772Z,66.65
2023-05-05T06:40:45.969Z,66.53
2023-05-05T06:43:15.577Z,66.33
2023-05-05T06:45:48.667Z,66.37
2023-05-05T06:48:16.838Z,65.85
2023-05-05T06:50:45.117Z,66.02
2023-05-05T06:53:13.352Z,65.91
2023-05-05T06:55:45.599Z,65.59
2023-05-05T06:58:15.353Z,65.85
2023-05-05T07:00:43.738Z,65.76
2023-05-05T07:03:12.084Z,66.22
2023-05-05T07:05:40.517Z,66.19
2023-05-05T07:08:09.063Z,66.26
2023-05-05T07:10:37.344Z,66.04
2023-05-05T07:13:05.768Z,65.83
2023-05-05T07:15:35.609Z,65.81
2023-05-05T07:18:03.965Z,66.38
2023-05-05T07:20:32.607Z,65.43
2023-05-05T07:23:00.809Z,65.66
2023-05-05T07:25:29.219Z,67.06
2023-05-05T07:27:57.536Z,66.49
2023-05-05T07:30:26.637Z,66.25
2023-05-05T07:32:56.884Z,66.19
2023-05-05T07:35:25.176Z,65.85
2023-05-05T07:37:53.461Z,65.78
2023-05-05T07:40:21.707Z,66.26
2023-05-05T07:42:50.100Z,66.22
2023-05-05T07:45:18.607Z,65.80
2023-05-05T07:47:46.866Z,66.43
2023-05-05T07:50:16.498Z,66.27
2023-05-05T07:52:50.011Z,66.69
2023-05-05T07:55:24.514Z,66.64
2023-05-05T07:57:52.833Z,65.67
2023-05-05T08:00:21.786Z,65.95
2023-05-05T08:02:50.212Z,65.89
2023-05-05T08:05:20.075Z,66.16
2023-05-05T08:07:48.310Z,65.98
2023-05-05T08:10:16.650Z,65.62
2023-05-05T08:12:44.875Z,66.39
2023-05-05T08:15:13.313Z,66.32
2023-05-05T08:17:48.808Z,66.42
2023-05-05T08:20:17.388Z,66.63
2023-05-05T08:22:47.512Z,66.20
2023-05-05T08:25:16.044Z,66.60
2023-05-05T08:27:44.504Z,66.23
2023-05-05T08:30:13.458Z,66.22
2023-05-05T08:32:41.793Z,65.75
2023-05-05T08:35:10.861Z,66.13
2023-05-05T08:37:39.336Z,66.12
2023-05-05T08:40:14.072Z,65.73
2023-05-05T08:42:42.594Z,66.00
2023-05-05T08:45:11.919Z,66.10
2023-05-05T08:47:40.701Z,66.46
2023-05-05T08:50:11.946Z,66.24
2023-05-05T08:52:41.878Z,66.22
2023-05-05T08:55:16.152Z,66.83
2023-05-05T08:57:51.574Z,66.95
2023-05-05T09:00:21.198Z,67.04
2023-05-05T09:02:50.106Z,67.00
2023-05-05T09:05:19.641Z,67.16
2023-05-05T09:07:48.047Z,67.17
2023-05-05T09:10:18.019Z,66.78
2023-05-05T09:12:46.617Z,66.72
2023-05-05T09:15:16.358Z,66.95
2023-05-05T09:17:44.764Z,66.74
2023-05-05T09:20:14.966Z,67.02
2023-05-05T09:22:44.240Z,66.58
2023-05-05T09:25:13.873Z,66.55
2023-05-05T09:27:45.911Z,66.05
2023-05-05T09:30:17.278Z,66.11
2023-05-05T09:32:47.010Z,65.66
2023-05-05T09:35:16.085Z,66.32
2023-05-05T09:37:44.495Z,66.05
2023-05-05T09:40:14.953Z,65.19
2023-05-05T09:42:45.012Z,65.99
2023-05-05T09:45:27.508Z,65.62
2023-05-05T09:47:59.630Z,66.37
2023-05-05T09:50:30.714Z,65.35
2023-05-05T09:53:00.817Z,66.40
2023-05-05T09:55:29.262Z,66.01
2023-05-05T09:57:59.124Z,65.70
2023-05-05T10:00:39.909Z,64.67
2023-05-05T10:03:08.231Z,64.10
2023-05-05T10:05:48.632Z,65.27
2023-05-05T10:08:17.498Z,65.81
2023-05-05T10:10:50.565Z,65.95
2023-05-05T10:13:21.790Z,65.20
2023-05-05T10:15:52.101Z,66.04
2023-05-05T10:18:23.258Z,64.90
2023-05-05T10:20:58.040Z,64.82
2023-05-05T10:23:33.386Z,64.27
2023-05-05T10:26:03.815Z,64.66
2023-05-05T10:28:35.635Z,63.27
2023-05-05T10:31:19.953Z,63.35
2023-05-05T10:33:55.524Z,64.34
2023-05-05T10:36:25.685Z,64.34
2023-05-05T10:38:57.437Z,66.12
2023-05-05T10:41:26.652Z,65.11
2023-05-05T10:43:58.363Z,64.85
2023-05-05T10:46:27.948Z,65.37
2023-05-05T10:49:03.895Z,64.79
2023-05-05T10:51:41.398Z,65.65
2023-05-05T10:54:15.087Z,64.64
2023-05-05T10:56:44.076Z,65.66
2023-05-05T10:59:47.667Z,64.65
2023-05-05T11:02:26.737Z,65.96
2023-05-05T11:05:18.223Z,65.67
2023-05-05T11:07:47.537Z,65.73
2023-05-05T11:10:17.009Z,66.20
2023-05-05T11:13:19.974Z,65.24
2023-05-05T11:15:50.840Z,66.36
2023-05-05T11:18:33.971Z,64.18
2023-05-05T11:21:17.287Z,62.94
2023-05-05T11:23:50.775Z,64.00
2023-05-05T11:26:40.396Z,62.24
2023-05-05T11:29:08.648Z,62.55
2023-05-05T11:31:38.402Z,61.37
2023-05-05T11:34:29.343Z,61.47
2023-05-05T11:37:03.923Z,61.46
2023-05-05T11:39:52.192Z,62.21
2023-05-05T11:42:25.347Z,63.08
2023-05-05T11:44:54.591Z,63.76
2023-05-05T11:47:29.215Z,64.62
2023-05-05T11:49:58.183Z,64.57
2023-05-05T11:52:28.087Z,63.65
2023-05-05T11:55:02.442Z,63.63
2023-05-05T11:57:31.555Z,61.47
2023-05-05T12:00:01.823Z,61.95
2023-05-05T12:02:36.675Z,61.15
2023-05-05T12:05:05.661Z,61.17
2023-05-05T12:07:34.774Z,59.51
2023-05-05T12:10:03.112Z,60.73
2023-05-05T12:12:36.385Z,59.99
2023-05-05T12:15:05.553Z,57.46
2023-05-05T12:17:44.930Z,91.52
2023-05-05T12:20:14.098Z,100.01
2023-05-05T12:22:42.558Z,103.07
2023-05-05T12:25:11.560Z,104.63
2023-05-05T12:27:40.061Z,106.30
2023-05-05T12:30:13.978Z,104.74
2023-05-05T12:32:44.158Z,104.34
2023-05-05T12:35:13.304Z,103.37
2023-05-05T12:37:42.062Z,104.52
2023-05-05T12:40:48.678Z,102.80
2023-05-05T12:43:30.465Z,104.62
2023-05-05T12:46:07.255Z,103.21
2023-05-05T12:48:39.095Z,102.79
2023-05-05T12:51:18.370Z,104.05
2023-05-05T12:53:47.379Z,100.12
2023-05-05T12:56:33.778Z,99.78
2023-05-05T12:59:02.585Z,102.31
2023-05-05T13:01:31.211Z,101.32
2023-05-05T13:04:08.224Z,99.15
2023-05-05T13:06:37.724Z,97.95
2023-05-05T13:09:06.846Z,94.89
2023-05-05T13:11:38.824Z,96.18
2023-05-05T13:14:07.882Z,98.97
2023-05-05T13:16:36.418Z,99.91
2023-05-05T13:19:04.777Z,103.18
2023-05-05T13:21:34.498Z,102.93
2023-05-05T13:24:20.691Z,105.86
2023-05-05T13:26:51.454Z,106.54
2023-05-05T13:29:19.954Z,107.26
2023-05-05T13:31:49.136Z,107.04
2023-05-05T13:34:17.680Z,107.62
2023-05-05T13:36:47.281Z,106.19
2023-05-05T13:39:15.544Z,107.63
2023-05-05T13:41:44.790Z,108.23
2023-05-05T13:44:13.650Z,106.46
2023-05-05T13:46:42.478Z,103.09
2023-05-05T13:49:11.233Z,102.62
2023-05-05T13:51:39.489Z,104.97
2023-05-05T13:54:09.743Z,104.53
2023-05-05T13:56:38.177Z,99.05
2023-05-05T13:59:06.445Z,98.62
2023-05-05T14:01:34.847Z,98.75
2023-05-05T14:04:05.357Z,96.32
2023-05-05T14:06:34.209Z,96.55
2023-05-05T14:09:05.811Z,95.95
2023-05-05T14:11:38.507Z,99.84
2023-05-05T14:14:06.972Z,100.90
2023-05-05T14:16:35.205Z,99.49
2023-05-05T14:19:03.433Z,99.63
2023-05-05T14:21:32.834Z,98.55
2023-05-05T14:24:01.076Z,97.11
2023-05-05T14:26:29.322Z,99.80
2023-05-05T14:28:58.920Z,96.38
2023-05-05T14:31:27.322Z,95.94
2023-05-05T14:33:55.569Z,96.33
2023-05-05T14:36:23.769Z,94.54
2023-05-05T14:38:52.079Z,90.29
2023-05-05T14:41:20.494Z,92.05
2023-05-05T14:43:48.732Z,89.78
2023-05-05T14:46:18.899Z,89.95
2023-05-05T14:48:47.581Z,91.26
2023-05-05T14:51:16.505Z,94.01
2023-05-05T14:53:44.747Z,89.95
2023-05-05T14:56:13.034Z,89.65
2023-05-05T14:58:41.221Z,85.78
2023-05-05T15:01:09.491Z,88.13
2023-05-05T15:03:39.198Z,91.76
2023-05-05T15:06:08.842Z,88.33
2023-05-05T15:08:39.121Z,87.70
2023-05-05T15:11:07.597Z,79.63
2023-05-05T15:13:38.818Z,77.22
2023-05-05T15:16:07.954Z,79.81
2023-05-05T15:18:36.339Z,85.58
2023-05-05T15:21:06.379Z,87.73
2023-05-05T15:23:34.770Z,87.23
2023-05-05T15:26:03.318Z,92.05
2023-05-05T15:28:31.570Z,98.72
2023-05-05T15:31:01.847Z,96.44
2023-05-05T15:33:30.961Z,98.25
2023-05-05T15:35:59.279Z,94.94
2023-05-05T15:38:29.271Z,90.08
2023-05-05T15:40:57.466Z,82.29
2023-05-05T15:43:25.748Z,82.72
2023-05-05T15:45:55.300Z,80.02
2023-05-05T15:48:23.526Z,85.84
2023-05-05T15:50:51.764Z,89.64
2023-05-05T15:53:19.992Z,90.60
2023-05-05T15:55:49.677Z,86.81
2023-05-05T15:58:17.968Z,86.79
2023-05-05T16:00:46.273Z,84.42
2023-05-05T16:03:14.569Z,81.09
2023-05-05T16:05:42.885Z,80.51
2023-05-05T16:08:11.222Z,82.84
2023-05-05T16:10:39.457Z,87.43
2023-05-05T16:13:09.123Z,87.64
2023-05-05T16:15:37.595Z,84.06
2023-05-05T16:18:05.924Z,80.12
2023-05-05T16:20:34.244Z,81.22
2023-05-05T16:23:02.511Z,78.96
2023-05-05T16:25:30.697Z,83.49
2023-05-05T16:28:00.235Z,86.33
2023-05-05T16:30:29.959Z,87.51
2023-05-05T16:32:58.312Z,89.50
2023-05-05T16:35:26.649Z,92.91
2023-05-05T16:37:55.164Z,92.02
2023-05-05T16:40:23.593Z,91.52
2023-05-05T16:42:51.839Z,93.18
2023-05-05T16:45:20.151Z,94.18
2023-05-05T16:47:49.819Z,92.92
2023-05-05T16:50:18.383Z,91.53
2023-05-05T16:52:46.614Z,93.78
2023-05-05T16:55:15.143Z,92.15
2023-05-05T16:57:43.417Z,90.40
2023-05-05T17:00:12.316Z,90.95
2023-05-05T17:02:40.576Z,94.50
2023-05-05T17:05:11.109Z,95.14
2023-05-05T17:07:39.520Z,96.19
2023-05-05T17:10:09.112Z,96.30
2023-05-05T17:12:37.464Z,92.44
2023-05-05T17:15:06.722Z,95.30
2023-05-05T17:17:35.568Z,94.70
2023-05-05T17:20:04.865Z,96.38
2023-05-05T17:22:34.465Z,98.09
2023-05-05T17:25:02.684Z,99.73
2023-05-05T17:27:30.902Z,100.87
2023-05-05T17:29:59.237Z,101.19
2023-05-05T17:32:27.517Z,102.22
2023-05-05T17:34:56.361Z,102.01
2023-05-05T17:37:24.656Z,102.11
2023-05-05T17:39:54.223Z,102.25
2023-05-05T17:42:23.115Z,102.50
2023-05-05T17:44:51.346Z,103.37
2023-05-05T17:47:22.313Z,103.86
2023-05-05T17:49:50.714Z,103.31
2023-05-05T17:52:18.965Z,105.12
2023-05-05T17:54:48.704Z,103.74
2023-05-05T17:57:20.986Z,104.33
2023-05-05T17:59:50.200Z,105.29
2023-05-05T18:02:19.098Z,103.05
2023-05-05T18:04:47.792Z,105.62
2023-05-05T18:07:16.367Z,104.71
2023-05-05T18:09:44.587Z,104.60
2023-05-05T18:12:12.847Z,103.66
2023-05-05T18:14:42.418Z,103.83
2023-05-05T18:17:10.714Z,104.68
2023-05-05T18:19:42.344Z,104.17
2023-05-05T18:22:10.587Z,105.45
2023-05-05T18:24:38.856Z,104.19
2023-05-05T18:27:07.832Z,103.40
2023-05-05T18:29:36.985Z,104.82
2023-05-05T18:32:07.369Z,105.08
2023-05-05T18:34:35.894Z,104.02
2023-05-05T18:37:04.067Z,101.43
2023-05-05T18:39:32.409Z,99.96
2023-05-05T18:42:00.643Z,99.23
2023-05-05T18:44:29.341Z,98.59
2023-05-05T18:46:57.662Z,98.42
2023-05-05T18:49:30.314Z,99.86
2023-05-05T18:51:59.444Z,98.04
2023-05-05T18:54:27.708Z,102.44
2023-05-05T18:56:56.023Z,99.87
2023-05-05T18:59:24.329Z,102.94
2023-05-05T19:01:52.569Z,99.74
2023-05-05T19:04:30.823Z,99.26
2023-05-05T19:07:01.539Z,97.59
2023-05-05T19:09:29.850Z,95.26
2023-05-05T19:11:58.101Z,97.97
2023-05-05T19:14:26.414Z,95.88
2023-05-05T19:16:55.752Z,95.46
2023-05-05T19:19:24.274Z,96.89
2023-05-05T19:21:52.665Z,94.40
2023-05-05T19:24:22.261Z,96.28
2023-05-05T19:26:50.461Z,96.80
2023-05-05T19:29:18.692Z,97.47
2023-05-05T19:31:47.048Z,95.46
2023-05-05T19:34:15.348Z,96.06
2023-05-05T19:36:43.606Z,97.26
2023-05-05T19:39:13.620Z,96.26
2023-05-05T19:41:44.212Z,93.74
2023-05-05T19:44:12.430Z,97.38
2023-05-05T19:46:40.865Z,94.10
2023-05-05T19:49:09.287Z,92.30
2023-05-05T19:51:37.533Z,91.03
2023-05-05T19:54:06.171Z,92.56
2023-05-05T19:56:34.442Z,94.05
2023-05-05T19:59:06.255Z,94.89
2023-05-05T20:01:35.059Z,94.85
2023-05-05T20:04:04.351Z,90.49
2023-05-05T20:06:33.141Z,92.27
2023-05-05T20:09:02.018Z,90.63
2023-05-05T20:11:31.006Z,91.26
2023-05-05T20:13:59.604Z,90.22
2023-05-05T20:16:29.332Z,94.15
2023-05-05T20:18:57.697Z,92.69
2023-05-05T20:21:26.798Z,90.92
2023-05-05T20:23:55.542Z,91.92
2023-05-05T20:26:24.464Z,90.84
2023-05-05T20:28:52.778Z,89.64
2023-05-05T20:31:21.283Z,89.69
2023-05-05T20:33:50.996Z,85.93
2023-05-05T20:36:19.479Z,86.35
2023-05-05T20:38:47.715Z,89.10
2023-05-05T20:41:15.954Z,90.12
2023-05-05T20:43:44.234Z,88.42
2023-05-05T20:46:13.372Z,87.61
2023-05-05T20:48:43.003Z,90.30
2023-05-05T20:51:12.871Z,88.06
2023-05-05T20:53:41.421Z,88.27
2023-05-05T20:56:09.658Z,87.67
2023-05-05T20:58:37.891Z,89.82
2023-05-05T21:01:06.236Z,89.32
2023-05-05T21:03:34.530Z,89.81
2023-05-05T21:06:03.109Z,90.56
2023-05-05T21:08:32.662Z,89.47
2023-05-05T21:11:00.946Z,89.44
2023-05-05T21:13:29.265Z,89.97
2023-05-05T21:15:57.461Z,91.53
2023-05-05T21:18:27.626Z,90.17
2023-05-05T21:20:56.493Z,91.00
2023-05-05T21:23:24.714Z,89.66
2023-05-05T21:25:54.302Z,87.35
2023-05-05T21:28:22.532Z,87.88
2023-05-05T21:31:10.129Z,86.42
2023-05-05T21:33:39.043Z,86.80
2023-05-05T21:36:07.561Z,85.51
2023-05-05T21:38:36.066Z,85.12
2023-05-05T21:41:05.913Z,85.61
2023-05-05T21:43:34.116Z,85.27
2023-05-05T21:46:03.130Z,85.89
2023-05-05T21:48:32.586Z,84.63
2023-05-05T21:51:00.962Z,83.16
2023-05-05T21:53:29.217Z,83.55
2023-05-05T21:55:57.466Z,83.10
2023-05-05T21:58:27.083Z,83.16
2023-05-05T22:00:55.659Z,82.68
2023-05-05T22:03:24.204Z,81.64
2023-05-05T22:05:52.610Z,82.54
2023-05-05T22:08:20.976Z,81.93
2023-05-05T22:10:49.177Z,81.87
2023-05-05T22:13:17.630Z,82.27
2023-05-05T22:15:47.755Z,82.04
2023-05-05T22:18:16.312Z,81.83
2023-05-05T22:20:44.608Z,80.81
2023-05-05T22:23:14.110Z,81.10
2023-05-05T22:25:42.471Z,80.62
2023-05-05T22:28:10.758Z,80.90
2023-05-05T22:30:39.002Z,80.53
2023-05-05T22:33:09.052Z,79.24
2023-05-05T22:35:38.390Z,79.68
2023-05-05T22:38:07.125Z,79.93
2023-05-05T22:40:35.970Z,79.68
2023-05-05T22:43:04.279Z,79.24
2023-05-05T22:45:32.483Z,78.75
2023-05-05T22:48:00.923Z,78.47
2023-05-05T22:50:30.684Z,77.69
2023-05-05T22:52:58.916Z,76.94
2023-05-05T22:55:27.373Z,75.10
2023-05-05T22:57:55.588Z,74.80
2023-05-05T23:00:23.898Z,73.93
2023-05-05T23:02:52.330Z,73.39
2023-05-05T23:05:20.640Z,73.19
2023-05-05T23:07:50.392Z,72.99
2023-05-05T23:10:18.675Z,72.94
2023-05-05T23:12:47.182Z,72.74
2023-05-05T23:15:15.736Z,72.82
2023-05-05T23:17:44.051Z,72.85
2023-05-05T23:20:13.273Z,72.67
2023-05-05T23:22:41.616Z,72.70
2023-05-05T23:25:12.042Z,72.72
2023-05-05T23:27:41.088Z,72.38
2023-05-05T23:30:10.451Z,72.26
2023-05-05T23:32:38.798Z,72.24
2023-05-05T23:35:08.253Z,72.09
2023-05-05T23:37:36.705Z,72.01
2023-05-05T23:40:06.867Z,71.85
2023-05-05T23:42:36.505Z,71.90
2023-05-05T23:45:05.204Z,71.93
2023-05-05T23:47:33.484Z,71.72
2023-05-05T23:50:02.016Z,71.55
2023-05-05T23:52:30.237Z,71.42
2023-05-05T23:54:58.535Z,71.45
2023-05-05T23:57:26.808Z,71.37
2023-05-05T23:59:56.413Z,71.36
